sensor_id;sensor_type;location;lat;lon;timestamp;temperature;humidity
40153;DHT22;26371;56.992;23.912;2023-08-07T00:00:45;25.30;99.90
40153;DHT22;26371;56.992;23.912;2023-08-07T00:03:13;25.30;99.90
40153;DHT22;26371;56.992;23.912;2023-08-07T00:05:45;25.30;99.90
40153;DHT22;26371;56.992;23.912;2023-08-07T00:08:15;25.30;99.90
40153;DHT22;26371;56.992;23.912;2023-08-07T00:10:43;25.30;99.90
40153;DHT22;26371;56.992;23.912;2023-08-07T00:13:12;25.30;99.90
40153;DHT22;26371;56.992;23.912;2023-08-07T00:15:40;25.30;99.90
40153;DHT22;26371;56.992;23.912;2023-08-07T00:18:09;25.20;99.90
40153;DHT22;26371;56.992;23.912;2023-08-07T00:20:37;25.20;99.90
40153;DHT22;26371;56.992;23.912;2023-08-07T00:23:05;25.20;99.90
40153;DHT22;26371;56.992;23.912;2023-08-07T00:25:35;25.20;99.90
40153;DHT22;26371;56.992;23.912;2023-08-07T00:28:04;25.20;99.90
40153;DHT22;26371;56.992;23.912;2023-08-07T00:30:32;25.20;99.90
40153;DHT22;26371;56.992;23.912;2023-08-07T00:33:01;25.20;99.90
40153;DHT22;26371;56.992;23.912;2023-08-07T00:35:29;25.20;99.90
40153;DHT22;26371;56.992;23.912;2023-08-07T00:37:58;25.20;99.90
40153;DHT22;26371;56.992;23.912;2023-08-07T00:40:27;25.20;99.90
40153;DHT22;26371;56.992;23.912;2023-08-07T00:46:20;25.10;99.90
40153;DHT22;26371;56.992;23.912;2023-08-07T00:48:49;25.10;99.90
40153;DHT22;26371;56.992;23.912;2023-08-07T00:51:17;25.10;99.90
40153;DHT22;26371;56.992;23.912;2023-08-07T00:53:45;26.30;99.90
40153;DHT22;26371;56.992;23.912;2023-08-07T00:56:15;25.10;99.90
40153;DHT22;26371;56.992;23.912;2023-08-07T00:58:43;25.10;99.90
40153;DHT22;26371;56.992;23.912;2023-08-07T01:01:12;25.10;99.90
40153;DHT22;26371;56.992;23.912;2023-08-07T01:06:12;25.10;99.90
40153;DHT22;26371;56.992;23.912;2023-08-07T01:08:42;25.00;99.90
40153;DHT22;26371;56.992;23.912;2023-08-07T01:11:14;25.00;99.90
40153;DHT22;26371;56.992;23.912;2023-08-07T01:13:48;25.00;99.90
40153;DHT22;26371;56.992;23.912;2023-08-07T01:16:21;25.00;99.90
40153;DHT22;26371;56.992;23.912;2023-08-07T01:18:54;25.00;99.90
40153;DHT22;26371;56.992;23.912;2023-08-07T01:21:25;25.10;99.90
40153;DHT22;26371;56.992;23.912;2023-08-07T01:23:54;25.00;99.90
40153;DHT22;26371;56.992;23.912;2023-08-07T01:26:24;25.00;99.90
40153;DHT22;26371;56.992;23.912;2023-08-07T01:28:58;25.00;99.90
40153;DHT22;26371;56.992;23.912;2023-08-07T01:31:29;25.00;99.90
40153;DHT22;26371;56.992;23.912;2023-08-07T01:34:01;25.00;99.90
40153;DHT22;26371;56.992;23.912;2023-08-07T01:36:30;25.00;99.90
40153;DHT22;26371;56.992;23.912;2023-08-07T01:39:01;25.00;99.90
40153;DHT22;26371;56.992;23.912;2023-08-07T01:41:31;25.00;99.90
40153;DHT22;26371;56.992;23.912;2023-08-07T01:43:59;24.90;99.90
40153;DHT22;26371;56.992;23.912;2023-08-07T01:46:29;24.90;99.90
40153;DHT22;26371;56.992;23.912;2023-08-07T01:48:57;24.90;99.90
40153;DHT22;26371;56.992;23.912;2023-08-07T01:51:25;24.90;99.90
40153;DHT22;26371;56.992;23.912;2023-08-07T02:48:38;24.70;99.90
40153;DHT22;26371;56.992;23.912;2023-08-07T02:51:08;24.60;99.90
40153;DHT22;26371;56.992;23.912;2023-08-07T02:53:36;24.70;99.90
40153;DHT22;26371;56.992;23.912;2023-08-07T02:56:05;24.70;99.90
40153;DHT22;26371;56.992;23.912;2023-08-07T02:58:34;24.70;99.90
40153;DHT22;26371;56.992;23.912;2023-08-07T03:01:03;24.70;99.90
40153;DHT22;26371;56.992;23.912;2023-08-07T03:03:31;24.70;99.90
40153;DHT22;26371;56.992;23.912;2023-08-07T03:06:01;24.70;99.90
40153;DHT22;26371;56.992;23.912;2023-08-07T03:08:29;24.70;99.90
40153;DHT22;26371;56.992;23.912;2023-08-07T03:10:58;24.70;99.90
40153;DHT22;26371;56.992;23.912;2023-08-07T03:13:26;24.70;99.90
40153;DHT22;26371;56.992;23.912;2023-08-07T03:16:01;24.70;99.90
40153;DHT22;26371;56.992;23.912;2023-08-07T03:18:29;24.70;99.90
40153;DHT22;26371;56.992;23.912;2023-08-07T03:20:58;24.70;99.90
40153;DHT22;26371;56.992;23.912;2023-08-07T03:23:29;24.70;99.90
40153;DHT22;26371;56.992;23.912;2023-08-07T03:26:04;24.70;99.90
40153;DHT22;26371;56.992;23.912;2023-08-07T03:28:37;24.70;99.90
40153;DHT22;26371;56.992;23.912;2023-08-07T03:31:05;24.70;99.90
40153;DHT22;26371;56.992;23.912;2023-08-07T03:33:40;24.80;99.90
40153;DHT22;26371;56.992;23.912;2023-08-07T03:36:09;24.80;99.90
40153;DHT22;26371;56.992;23.912;2023-08-07T03:38:39;24.80;99.90
40153;DHT22;26371;56.992;23.912;2023-08-07T03:41:08;24.80;99.90
40153;DHT22;26371;56.992;23.912;2023-08-07T03:43:39;24.90;99.90
40153;DHT22;26371;56.992;23.912;2023-08-07T03:46:08;24.90;99.90
40153;DHT22;26371;56.992;23.912;2023-08-07T03:48:36;24.90;99.90
40153;DHT22;26371;56.992;23.912;2023-08-07T03:51:05;24.90;99.90
40153;DHT22;26371;56.992;23.912;2023-08-07T03:53:42;24.90;99.90
40153;DHT22;26371;56.992;23.912;2023-08-07T03:56:10;24.90;99.90
40153;DHT22;26371;56.992;23.912;2023-08-07T03:58:40;24.90;99.90
40153;DHT22;26371;56.992;23.912;2023-08-07T04:01:08;24.90;99.90
40153;DHT22;26371;56.992;23.912;2023-08-07T04:03:39;25.00;99.90
40153;DHT22;26371;56.992;23.912;2023-08-07T04:06:07;25.10;99.90
40153;DHT22;26371;56.992;23.912;2023-08-07T04:08:37;25.10;99.90
40153;DHT22;26371;56.992;23.912;2023-08-07T04:11:07;25.10;99.90
40153;DHT22;26371;56.992;23.912;2023-08-07T04:13:36;25.10;99.90
40153;DHT22;26371;56.992;23.912;2023-08-07T04:16:04;25.10;99.90
40153;DHT22;26371;56.992;23.912;2023-08-07T04:18:33;25.10;99.90
40153;DHT22;26371;56.992;23.912;2023-08-07T04:21:02;25.10;99.90
40153;DHT22;26371;56.992;23.912;2023-08-07T04:23:31;25.10;99.90
40153;DHT22;26371;56.992;23.912;2023-08-07T04:25:59;25.20;99.90
40153;DHT22;26371;56.992;23.912;2023-08-07T04:28:29;25.20;99.90
40153;DHT22;26371;56.992;23.912;2023-08-07T04:30:59;25.30;99.90
40153;DHT22;26371;56.992;23.912;2023-08-07T04:33:27;25.30;99.90
40153;DHT22;26371;56.992;23.912;2023-08-07T04:35:56;25.30;99.90
40153;DHT22;26371;56.992;23.912;2023-08-07T04:38:24;25.40;99.90
40153;DHT22;26371;56.992;23.912;2023-08-07T04:40:53;25.40;99.90
40153;DHT22;26371;56.992;23.912;2023-08-07T04:43:21;25.40;99.90
40153;DHT22;26371;56.992;23.912;2023-08-07T04:45:52;25.40;99.90
40153;DHT22;26371;56.992;23.912;2023-08-07T04:48:23;25.40;99.90
40153;DHT22;26371;56.992;23.912;2023-08-07T04:50:52;25.40;99.90
40153;DHT22;26371;56.992;23.912;2023-08-07T04:53:20;25.40;99.90
40153;DHT22;26371;56.992;23.912;2023-08-07T04:55:49;25.40;99.90
40153;DHT22;26371;56.992;23.912;2023-08-07T04:58:19;25.50;99.90
40153;DHT22;26371;56.992;23.912;2023-08-07T05:00:47;25.40;99.90
40153;DHT22;26371;56.992;23.912;2023-08-07T05:03:17;25.40;99.90
40153;DHT22;26371;56.992;23.912;2023-08-07T05:05:46;25.40;99.90
40153;DHT22;26371;56.992;23.912;2023-08-07T05:08:14;25.30;99.90
40153;DHT22;26371;56.992;23.912;2023-08-07T05:10:42;25.30;99.90
40153;DHT22;26371;56.992;23.912;2023-08-07T05:13:11;25.30;99.90
40153;DHT22;26371;56.992;23.912;2023-08-07T05:15:39;25.20;99.90
40153;DHT22;26371;56.992;23.912;2023-08-07T05:18:08;25.20;99.90
40153;DHT22;26371;56.992;23.912;2023-08-07T05:20:38;25.20;99.90
40153;DHT22;26371;56.992;23.912;2023-08-07T05:23:06;25.20;99.90
40153;DHT22;26371;56.992;23.912;2023-08-07T05:25:35;25.20;99.90
40153;DHT22;26371;56.992;23.912;2023-08-07T05:28:03;25.30;99.90
40153;DHT22;26371;56.992;23.912;2023-08-07T05:30:32;25.30;99.90
40153;DHT22;26371;56.992;23.912;2023-08-07T05:33:00;25.40;99.90
40153;DHT22;26371;56.992;23.912;2023-08-07T05:35:29;25.40;99.90
40153;DHT22;26371;56.992;23.912;2023-08-07T05:37:59;25.50;99.90
40153;DHT22;26371;56.992;23.912;2023-08-07T05:40:27;25.50;99.90
40153;DHT22;26371;56.992;23.912;2023-08-07T05:42:56;25.60;99.90
40153;DHT22;26371;56.992;23.912;2023-08-07T05:45:25;25.60;99.90
40153;DHT22;26371;56.992;23.912;2023-08-07T05:47:53;25.60;99.90
40153;DHT22;26371;56.992;23.912;2023-08-07T05:50:26;25.70;99.90
40153;DHT22;26371;56.992;23.912;2023-08-07T05:52:54;25.70;99.90
40153;DHT22;26371;56.992;23.912;2023-08-07T05:55:24;25.80;99.90
40153;DHT22;26371;56.992;23.912;2023-08-07T05:57:52;25.80;99.90
40153;DHT22;26371;56.992;23.912;2023-08-07T06:00:20;25.80;99.90
40153;DHT22;26371;56.992;23.912;2023-08-07T06:02:49;25.70;99.90
40153;DHT22;26371;56.992;23.912;2023-08-07T06:05:17;25.80;99.90
40153;DHT22;26371;56.992;23.912;2023-08-07T06:07:46;25.80;99.90
40153;DHT22;26371;56.992;23.912;2023-08-07T06:10:19;25.90;99.90
40153;DHT22;26371;56.992;23.912;2023-08-07T06:12:48;25.90;99.90
40153;DHT22;26371;56.992;23.912;2023-08-07T06:15:17;26.00;99.90
40153;DHT22;26371;56.992;23.912;2023-08-07T06:17:46;26.10;99.90
40153;DHT22;26371;56.992;23.912;2023-08-07T06:20:14;26.20;99.90
40153;DHT22;26371;56.992;23.912;2023-08-07T06:22:43;26.20;99.90
40153;DHT22;26371;56.992;23.912;2023-08-07T06:25:11;26.20;99.90
40153;DHT22;26371;56.992;23.912;2023-08-07T06:27:39;26.20;99.90
40153;DHT22;26371;56.992;23.912;2023-08-07T06:30:12;26.20;99.90
40153;DHT22;26371;56.992;23.912;2023-08-07T06:32:41;26.30;99.90
40153;DHT22;26371;56.992;23.912;2023-08-07T06:35:09;26.40;99.90
40153;DHT22;26371;56.992;23.912;2023-08-07T06:37:37;26.40;99.90
40153;DHT22;26371;56.992;23.912;2023-08-07T06:40:06;26.50;99.90
40153;DHT22;26371;56.992;23.912;2023-08-07T06:42:35;26.50;99.90
40153;DHT22;26371;56.992;23.912;2023-08-07T06:45:04;26.60;99.90
40153;DHT22;26371;56.992;23.912;2023-08-07T06:47:34;26.60;99.90
40153;DHT22;26371;56.992;23.912;2023-08-07T06:50:03;26.70;99.90
40153;DHT22;26371;56.992;23.912;2023-08-07T06:52:32;26.70;99.90
40153;DHT22;26371;56.992;23.912;2023-08-07T06:55:00;26.80;99.90
40153;DHT22;26371;56.992;23.912;2023-08-07T06:57:28;26.90;99.90
40153;DHT22;26371;56.992;23.912;2023-08-07T06:59:57;26.90;99.90
40153;DHT22;26371;56.992;23.912;2023-08-07T07:02:25;27.00;99.90
40153;DHT22;26371;56.992;23.912;2023-08-07T07:04:55;27.00;99.90
40153;DHT22;26371;56.992;23.912;2023-08-07T07:07:24;27.10;99.90
40153;DHT22;26371;56.992;23.912;2023-08-07T07:09:53;27.10;99.90
40153;DHT22;26371;56.992;23.912;2023-08-07T07:12:21;27.10;99.90
40153;DHT22;26371;56.992;23.912;2023-08-07T07:14:50;27.20;99.90
40153;DHT22;26371;56.992;23.912;2023-08-07T07:17:18;27.20;99.90
40153;DHT22;26371;56.992;23.912;2023-08-07T07:19:47;27.30;99.90
40153;DHT22;26371;56.992;23.912;2023-08-07T07:22:17;27.30;99.90
40153;DHT22;26371;56.992;23.912;2023-08-07T07:24:45;27.40;99.90
40153;DHT22;26371;56.992;23.912;2023-08-07T07:27:13;27.40;99.90
40153;DHT22;26371;56.992;23.912;2023-08-07T07:29:42;27.50;99.90
40153;DHT22;26371;56.992;23.912;2023-08-07T07:32:10;27.60;99.90
40153;DHT22;26371;56.992;23.912;2023-08-07T07:34:38;27.60;99.90
40153;DHT22;26371;56.992;23.912;2023-08-07T07:37:08;27.60;99.90
40153;DHT22;26371;56.992;23.912;2023-08-07T07:39:38;27.60;99.90
40153;DHT22;26371;56.992;23.912;2023-08-07T07:42:06;27.70;99.90
40153;DHT22;26371;56.992;23.912;2023-08-07T07:44:35;27.70;99.90
40153;DHT22;26371;56.992;23.912;2023-08-07T07:47:03;27.80;99.90
40153;DHT22;26371;56.992;23.912;2023-08-07T07:49:32;27.80;99.90
40153;DHT22;26371;56.992;23.912;2023-08-07T07:52:01;27.80;99.90
40153;DHT22;26371;56.992;23.912;2023-08-07T07:54:29;27.80;99.90
40153;DHT22;26371;56.992;23.912;2023-08-07T07:56:59;27.90;99.90
40153;DHT22;26371;56.992;23.912;2023-08-07T07:59:28;28.10;99.90
40153;DHT22;26371;56.992;23.912;2023-08-07T08:01:56;28.10;99.90
40153;DHT22;26371;56.992;23.912;2023-08-07T08:04:25;28.20;99.90
40153;DHT22;26371;56.992;23.912;2023-08-07T08:06:55;28.40;99.90
40153;DHT22;26371;56.992;23.912;2023-08-07T08:09:23;28.40;99.90
40153;DHT22;26371;56.992;23.912;2023-08-07T08:11:52;28.40;99.90
40153;DHT22;26371;56.992;23.912;2023-08-07T09:51:11;28.90;99.90
40153;DHT22;26371;56.992;23.912;2023-08-07T09:53:40;29.10;99.90
40153;DHT22;26371;56.992;23.912;2023-08-07T09:56:08;29.10;99.90
40153;DHT22;26371;56.992;23.912;2023-08-07T09:58:37;29.30;99.90
40153;DHT22;26371;56.992;23.912;2023-08-07T10:03:36;29.50;99.90
40153;DHT22;26371;56.992;23.912;2023-08-07T10:06:05;29.70;99.90
40153;DHT22;26371;56.992;23.912;2023-08-07T10:08:35;29.80;99.90
40153;DHT22;26371;56.992;23.912;2023-08-07T10:11:04;29.80;99.90
40153;DHT22;26371;56.992;23.912;2023-08-07T10:13:33;29.80;99.90
40153;DHT22;26371;56.992;23.912;2023-08-07T10:16:05;29.80;99.90
40153;DHT22;26371;56.992;23.912;2023-08-07T10:18:38;29.70;99.90
40153;DHT22;26371;56.992;23.912;2023-08-07T10:21:06;29.60;99.90
40153;DHT22;26371;56.992;23.912;2023-08-07T10:23:36;29.50;99.90
40153;DHT22;26371;56.992;23.912;2023-08-07T10:26:07;29.40;99.90
40153;DHT22;26371;56.992;23.912;2023-08-07T10:28:37;29.20;99.90
40153;DHT22;26371;56.992;23.912;2023-08-07T10:31:06;29.00;99.90
40153;DHT22;26371;56.992;23.912;2023-08-07T10:33:34;28.70;99.90
40153;DHT22;26371;56.992;23.912;2023-08-07T10:36:08;28.30;99.90
40153;DHT22;26371;56.992;23.912;2023-08-07T10:43:39;26.70;99.90
40153;DHT22;26371;56.992;23.912;2023-08-07T10:46:09;26.20;99.90
40153;DHT22;26371;56.992;23.912;2023-08-07T10:48:38;25.90;99.90
40153;DHT22;26371;56.992;23.912;2023-08-07T10:53:40;24.40;99.90
40153;DHT22;26371;56.992;23.912;2023-08-07T10:56:10;24.20;99.90
40153;DHT22;26371;56.992;23.912;2023-08-07T10:58:41;23.70;99.90
40153;DHT22;26371;56.992;23.912;2023-08-07T11:16:06;21.10;99.90
40153;DHT22;26371;56.992;23.912;2023-08-07T11:18:35;21.00;99.90
40153;DHT22;26371;56.992;23.912;2023-08-07T17:38:36;18.20;99.90
40153;DHT22;26371;56.992;23.912;2023-08-07T17:41:04;18.10;99.90
40153;DHT22;26371;56.992;23.912;2023-08-07T17:43:32;17.90;99.90
40153;DHT22;26371;56.992;23.912;2023-08-07T17:46:01;17.70;99.90
40153;DHT22;26371;56.992;23.912;2023-08-07T17:48:29;17.60;99.90
40153;DHT22;26371;56.992;23.912;2023-08-07T17:50:57;17.50;99.90
40153;DHT22;26371;56.992;23.912;2023-08-07T17:53:26;17.40;99.90
40153;DHT22;26371;56.992;23.912;2023-08-07T17:55:56;17.30;99.90
40153;DHT22;26371;56.992;23.912;2023-08-07T17:58:30;17.30;99.90
40153;DHT22;26371;56.992;23.912;2023-08-07T18:00:59;17.20;99.90
40153;DHT22;26371;56.992;23.912;2023-08-07T18:03:28;17.00;99.90
40153;DHT22;26371;56.992;23.912;2023-08-07T18:05:57;16.80;99.90
40153;DHT22;26371;56.992;23.912;2023-08-07T18:08:26;16.70;99.90
40153;DHT22;26371;56.992;23.912;2023-08-07T18:10:56;16.60;99.90
40153;DHT22;26371;56.992;23.912;2023-08-07T18:15:53;16.40;99.90
40153;DHT22;26371;56.992;23.912;2023-08-07T18:18:21;16.30;99.90
40153;DHT22;26371;56.992;23.912;2023-08-07T18:23:18;16.20;99.90
40153;DHT22;26371;56.992;23.912;2023-08-07T18:25:47;16.20;99.90
40153;DHT22;26371;56.992;23.912;2023-08-07T18:28:17;16.10;99.90
40153;DHT22;26371;56.992;23.912;2023-08-07T18:30:45;16.20;99.90
40153;DHT22;26371;56.992;23.912;2023-08-07T18:33:14;16.20;99.90
40153;DHT22;26371;56.992;23.912;2023-08-07T18:35:43;16.20;99.90
40153;DHT22;26371;56.992;23.912;2023-08-07T18:38:11;16.30;99.90
40153;DHT22;26371;56.992;23.912;2023-08-07T18:40:40;16.40;99.90
40153;DHT22;26371;56.992;23.912;2023-08-07T18:43:08;16.40;99.90
40153;DHT22;26371;56.992;23.912;2023-08-07T18:45:38;16.40;99.90
40153;DHT22;26371;56.992;23.912;2023-08-07T18:48:07;16.40;99.90
40153;DHT22;26371;56.992;23.912;2023-08-07T18:50:36;16.40;99.90
40153;DHT22;26371;56.992;23.912;2023-08-07T18:53:04;16.50;99.90
40153;DHT22;26371;56.992;23.912;2023-08-07T18:55:32;16.60;99.90
40153;DHT22;26371;56.992;23.912;2023-08-07T18:58:02;16.60;99.90
40153;DHT22;26371;56.992;23.912;2023-08-07T19:04:19;16.70;99.90
40153;DHT22;26371;56.992;23.912;2023-08-07T19:06:49;16.60;99.90
40153;DHT22;26371;56.992;23.912;2023-08-07T20:56:59;15.50;99.90
40153;DHT22;26371;56.992;23.912;2023-08-07T20:59:28;15.50;99.90
40153;DHT22;26371;56.992;23.912;2023-08-07T21:01:57;15.60;99.90
40153;DHT22;26371;56.992;23.912;2023-08-07T21:04:27;15.60;99.90
40153;DHT22;26371;56.992;23.912;2023-08-07T21:06:56;15.60;99.90
40153;DHT22;26371;56.992;23.912;2023-08-07T21:09:25;15.70;99.90
40153;DHT22;26371;56.992;23.912;2023-08-07T21:11:53;15.70;99.90
40153;DHT22;26371;56.992;23.912;2023-08-07T21:14:24;15.80;99.90
40153;DHT22;26371;56.992;23.912;2023-08-07T21:16:53;15.80;99.90
40153;DHT22;26371;56.992;23.912;2023-08-07T21:19:21;15.80;99.90
40153;DHT22;26371;56.992;23.912;2023-08-07T22:25:12;15.50;99.90
40153;DHT22;26371;56.992;23.912;2023-08-07T22:27:41;15.50;99.90
40153;DHT22;26371;56.992;23.912;2023-08-07T22:30:10;15.50;99.90
40153;DHT22;26371;56.992;23.912;2023-08-07T22:32:40;15.50;99.90
40153;DHT22;26371;56.992;23.912;2023-08-07T22:35:11;15.40;99.90
40153;DHT22;26371;56.992;23.912;2023-08-07T22:37:39;15.40;99.90
40153;DHT22;26371;56.992;23.912;2023-08-07T22:40:08;15.40;99.90
40153;DHT22;26371;56.992;23.912;2023-08-07T22:42:39;15.40;99.90
40153;DHT22;26371;56.992;23.912;2023-08-07T22:45:08;15.40;99.90
40153;DHT22;26371;56.992;23.912;2023-08-07T22:47:37;15.40;99.90
40153;DHT22;26371;56.992;23.912;2023-08-07T22:50:06;15.40;99.90
40153;DHT22;26371;56.992;23.912;2023-08-07T22:52:35;15.40;99.90
40153;DHT22;26371;56.992;23.912;2023-08-07T22:55:04;15.30;99.90
40153;DHT22;26371;56.992;23.912;2023-08-07T22:57:33;15.30;99.90
40153;DHT22;26371;56.992;23.912;2023-08-07T23:00:04;15.30;99.90
40153;DHT22;26371;56.992;23.912;2023-08-07T23:02:34;15.30;99.90
40153;DHT22;26371;56.992;23.912;2023-08-07T23:05:04;15.30;99.90
40153;DHT22;26371;56.992;23.912;2023-08-07T23:07:32;15.30;99.90
40153;DHT22;26371;56.992;23.912;2023-08-07T23:10:01;15.40;99.90
40153;DHT22;26371;56.992;23.912;2023-08-07T23:12:30;15.40;99.90
40153;DHT22;26371;56.992;23.912;2023-08-07T23:14:59;15.30;99.90
40153;DHT22;26371;56.992;23.912;2023-08-07T23:17:29;15.30;99.90
40153;DHT22;26371;56.992;23.912;2023-08-07T23:19:58;15.30;99.90
40153;DHT22;26371;56.992;23.912;2023-08-07T23:22:27;15.30;99.90
40153;DHT22;26371;56.992;23.912;2023-08-07T23:24:56;15.30;99.90
40153;DHT22;26371;56.992;23.912;2023-08-07T23:27:24;15.30;99.90
40153;DHT22;26371;56.992;23.912;2023-08-07T23:29:53;15.40;99.90
40153;DHT22;26371;56.992;23.912;2023-08-07T23:32:22;15.40;99.90
40153;DHT22;26371;56.992;23.912;2023-08-07T23:34:53;15.30;99.90
40153;DHT22;26371;56.992;23.912;2023-08-07T23:37:22;15.40;99.90
40153;DHT22;26371;56.992;23.912;2023-08-07T23:39:50;15.30;99.90
40153;DHT22;26371;56.992;23.912;2023-08-07T23:42:20;15.30;99.90
40153;DHT22;26371;56.992;23.912;2023-08-07T23:44:48;15.30;99.90
40153;DHT22;26371;56.992;23.912;2023-08-07T23:47:17;15.30;99.90
40153;DHT22;26371;56.992;23.912;2023-08-07T23:49:46;15.30;99.90
40153;DHT22;26371;56.992;23.912;2023-08-07T23:52:16;15.30;99.90
40153;DHT22;26371;56.992;23.912;2023-08-07T23:54:45;15.30;99.90
40153;DHT22;26371;56.992;23.912;2023-08-07T23:57:14;15.30;99.90
40153;DHT22;26371;56.992;23.912;2023-08-07T23:59:43;15.30;99.90
